Air Quality Table

TIMESTAMP NO2 SO2 O3 PM10 PM2.5 CO TEMP HUM AIRPRES WS WD NO BENZENE
2021-08-02 17:00 30.78 ug/m3 0.32 ug/m3 86.88 ug/m3 58.69 ug/m3 24.37 ug/m3 0.44 mg/m3 32.64 C 55.23 % 1,012.57 mbar 2.77 m/s 56.82 Deg 20.63 ug/m3 1.99 ug/m3
2021-08-02 09:00 42.67 ug/m3 0.49 ug/m3 46.99 ug/m3 69.84 ug/m3 21.11 ug/m3 0.4 mg/m3 30.46 C 51.99 % 1,011.62 mbar 0.91 m/s 218.17 Deg 23.07 ug/m3 3.4 ug/m3
2021-08-02 01:00 44.04 ug/m3 0.45 ug/m3 48.06 ug/m3 83.04 ug/m3 26.94 ug/m3 0.66 mg/m3 31.1 C 55.77 % 1,011.58 mbar 1.34 m/s 188.03 Deg 22.25 ug/m3 4.14 ug/m3
2021-08-01 17:00 20.8 ug/m3 0.2 ug/m3 89.23 ug/m3 57.11 ug/m3 20.71 ug/m3 0.33 mg/m3 35.77 C 30.19 % 1,011.29 mbar 2.15 m/s 141 Deg 8.18 ug/m3 1.8 ug/m3
2021-08-01 09:00 35.83 ug/m3 0.29 ug/m3 42.79 ug/m3 72 ug/m3 25.56 ug/m3 0.36 mg/m3 30.49 C 48.66 % 1,010.55 mbar 1.19 m/s 228.03 Deg 8.54 ug/m3 2.6 ug/m3
2021-08-01 01:00 36.24 ug/m3 0.34 ug/m3 51.13 ug/m3 67.95 ug/m3 23.79 ug/m3 0.52 mg/m3 30.22 C 62.11 % 1,010.78 mbar 1.26 m/s 97.93 Deg 16.35 ug/m3 3.46 ug/m3
2021-07-31 17:00 24.46 ug/m3 0.26 ug/m3 80.26 ug/m3 68.2 ug/m3 25.96 ug/m3 0.43 mg/m3 31.39 C 58.75 % 1,010.52 mbar 3.09 m/s 78.43 Deg 12.99 ug/m3 1.82 ug/m3
2021-07-31 09:00 26.75 ug/m3 0.24 ug/m3 64.78 ug/m3 52.31 ug/m3 21.32 ug/m3 0.26 mg/m3 30.08 C 51.7 % 1,010.49 mbar 1.69 m/s 220.73 Deg 4.75 ug/m3 1.82 ug/m3
2021-07-31 01:00 20.81 ug/m3 0.22 ug/m3 60.24 ug/m3 1.97 ug/m3 21.06 ug/m3 0.23 mg/m3 31.42 C 37 % 1,011.62 mbar 1.53 m/s 212.08 Deg 1.75 ug/m3 1.15 ug/m3
2021-07-30 17:00 25.49 ug/m3 0.31 ug/m3 66.6 ug/m3 1.91 ug/m3 18.63 ug/m3 0.2 mg/m3 35.92 C 20.16 % 1,013.01 mbar 2.78 m/s 236.57 Deg 6.63 ug/m3 1.11 ug/m3
2021-07-30 09:00 43.75 ug/m3 0.47 ug/m3 51.26 ug/m3 29.94 ug/m3 15.99 ug/m3 0.31 mg/m3 30 C 35.81 % 1,013.24 mbar 0.87 m/s 236.57 Deg 8.61 ug/m3 1.93 ug/m3
2021-07-30 01:00 34.87 ug/m3 0.24 ug/m3 69.68 ug/m3 46.34 ug/m3 14.36 ug/m3 0.3 mg/m3 31.8 C 28.11 % 1,013.63 mbar 1.11 m/s 244.42 Deg 1.82 ug/m3 1.44 ug/m3
2021-07-29 17:00 29.19 ug/m3 0.3 ug/m3 85.76 ug/m3 47.11 ug/m3 15.3 ug/m3 0.25 mg/m3 34.23 C 27.73 % 1,014.17 mbar 2.38 m/s 299.28 Deg 7.29 ug/m3 1.03 ug/m3
2021-07-29 09:00 62.07 ug/m3 1.03 ug/m3 30.49 ug/m3 62.92 ug/m3 18.14 ug/m3 0.58 mg/m3 29.44 C 34.02 % 1,013.77 mbar 0.59 m/s 224.67 Deg 40.2 ug/m3 6.02 ug/m3
2021-07-29 01:00 26.39 ug/m3 0.21 ug/m3 79.65 ug/m3 36.94 ug/m3 12.48 ug/m3 0.3 mg/m3 29.71 C 40.38 % 1,014.50 mbar 1.16 m/s 279.05 Deg 3.34 ug/m3 1.27 ug/m3
2021-07-28 17:00 29.99 ug/m3 0.34 ug/m3 88.45 ug/m3 28.16 ug/m3 10.83 ug/m3 0.27 mg/m3 32.52 C 27.86 % 1,015.14 mbar 2.03 m/s 322.35 Deg 12.56 ug/m3 0.88 ug/m3
2021-07-28 09:00 49.13 ug/m3 0.54 ug/m3 49.22 ug/m3 31.3 ug/m3 11.67 ug/m3 0.39 mg/m3 28.22 C 42.58 % 1,015.15 mbar 0.7 m/s 232.92 Deg 21.65 ug/m3 3.22 ug/m3
2021-07-28 01:00 45.72 ug/m3 0.44 ug/m3 60.56 ug/m3 19.32 ug/m3 8.23 ug/m3 0.52 mg/m3 28.2 C 52.14 % 1,016.11 mbar 1.11 m/s 91.83 Deg 15.13 ug/m3 4.12 ug/m3
2021-07-27 17:00 21.76 ug/m3 0.27 ug/m3 87.46 ug/m3 29.59 ug/m3 12.53 ug/m3 0.35 mg/m3 28.37 C 70.62 % 1,017.27 mbar 2.97 m/s 80.42 Deg 17.21 ug/m3 1.41 ug/m3
2021-07-27 09:00 29.83 ug/m3 0.26 ug/m3 58.57 ug/m3 41.04 ug/m3 12.51 ug/m3 0.33 mg/m3 26.72 C 78.14 % 1,016.67 mbar 0.95 m/s 146.92 Deg 12.24 ug/m3 2.99 ug/m3

It is to be noted that the data is provisional and subject to quality assurance procedures. For validated data kindly refer your request to contact.air@era.org.mt